createdAt,value
2019-03-20T00:00:48.222Z,5.63
2019-03-20T00:03:17.406Z,5.07
2019-03-20T00:05:46.667Z,5.20
2019-03-20T00:08:15.895Z,4.67
2019-03-20T00:10:45.192Z,5.13
2019-03-20T00:13:14.432Z,4.53
2019-03-20T00:15:43.708Z,5.40
2019-03-20T00:18:12.988Z,5.70
2019-03-20T00:20:42.150Z,5.40
2019-03-20T00:23:11.471Z,4.63
2019-03-20T00:25:40.913Z,4.83
2019-03-20T00:28:10.081Z,5.33
2019-03-20T00:30:39.338Z,4.53
2019-03-20T00:33:08.743Z,5.10
2019-03-20T00:35:37.893Z,5.43
2019-03-20T00:38:07.075Z,5.13
2019-03-20T00:40:36.225Z,5.03
2019-03-20T00:43:05.595Z,5.30
2019-03-20T00:45:34.759Z,4.67
2019-03-20T00:48:04.020Z,4.80
2019-03-20T00:50:33.241Z,5.77
2019-03-20T00:53:02.381Z,4.77
2019-03-20T00:55:31.573Z,4.80
2019-03-20T00:58:00.735Z,4.97
2019-03-20T01:00:29.961Z,5.17
2019-03-20T01:02:59.208Z,5.20
2019-03-20T01:05:28.414Z,4.73
2019-03-20T01:07:57.589Z,4.53
2019-03-20T01:10:26.804Z,5.00
2019-03-20T01:12:55.961Z,4.70
2019-03-20T01:15:26.972Z,5.73
2019-03-20T01:17:56.165Z,5.40
2019-03-20T01:20:25.560Z,4.77
2019-03-20T01:22:54.785Z,4.87
2019-03-20T01:25:24.071Z,4.93
2019-03-20T01:27:53.316Z,4.90
2019-03-20T01:30:33.075Z,6.30
2019-03-20T01:33:03.609Z,5.17
2019-03-20T01:35:32.868Z,5.10
2019-03-20T01:38:02.067Z,5.50
2019-03-20T01:40:31.266Z,4.80
2019-03-20T01:43:00.441Z,5.33
2019-03-20T01:45:29.696Z,5.53
2019-03-20T01:47:59.574Z,5.93
2019-03-20T01:50:28.874Z,6.37
2019-03-20T01:52:58.053Z,4.77
2019-03-20T01:55:27.315Z,6.33
2019-03-20T01:57:56.465Z,5.33
2019-03-20T02:00:25.646Z,5.13
2019-03-20T02:02:54.871Z,6.80
2019-03-20T02:05:34.715Z,5.20
2019-03-20T02:07:55.049Z,5.07
2019-03-20T02:10:24.201Z,5.60
2019-03-20T02:12:53.370Z,5.50
2019-03-20T02:15:23.996Z,5.10
2019-03-20T02:17:53.175Z,5.30
2019-03-20T02:20:22.332Z,5.10
2019-03-20T02:22:51.556Z,5.57
2019-03-20T02:25:20.703Z,6.00
2019-03-20T02:27:49.877Z,4.63
2019-03-20T02:30:19.242Z,5.20
2019-03-20T02:32:48.426Z,5.97
2019-03-20T02:35:17.695Z,5.90
2019-03-20T02:37:46.863Z,7.13
2019-03-20T02:40:16.120Z,7.13
2019-03-20T02:42:45.300Z,5.17
2019-03-20T02:45:15.072Z,6.23
2019-03-20T02:47:45.423Z,6.97
2019-03-20T02:50:15.137Z,6.40
2019-03-20T02:52:44.287Z,7.50
2019-03-20T02:55:13.682Z,6.17
2019-03-20T02:57:42.924Z,5.70
2019-03-20T03:00:13.747Z,5.73
2019-03-20T03:02:42.942Z,6.03
2019-03-20T03:05:12.600Z,7.07
2019-03-20T03:07:42.045Z,5.53
2019-03-20T03:10:11.527Z,5.13
2019-03-20T03:12:40.681Z,4.87
2019-03-20T03:15:10.219Z,4.83
2019-03-20T03:17:39.435Z,5.00
2019-03-20T03:20:10.325Z,5.20
2019-03-20T03:22:39.489Z,5.20
2019-03-20T03:25:08.879Z,5.30
2019-03-20T03:27:38.073Z,6.50
2019-03-20T03:30:07.659Z,4.63
2019-03-20T03:32:36.877Z,4.93
2019-03-20T03:35:06.337Z,4.43
2019-03-20T03:37:35.490Z,4.90
2019-03-20T03:40:06.188Z,4.37
2019-03-20T03:42:35.588Z,5.00
2019-03-20T03:45:05.386Z,4.87
2019-03-20T03:47:34.582Z,4.83
2019-03-20T03:50:04.114Z,4.80
2019-03-20T03:52:33.272Z,4.33
2019-03-20T03:55:02.443Z,4.73
2019-03-20T03:57:31.597Z,5.30
2019-03-20T04:00:00.751Z,5.10
2019-03-20T04:02:29.965Z,5.67
2019-03-20T04:04:59.229Z,5.00
2019-03-20T04:07:28.512Z,4.80
2019-03-20T04:09:57.636Z,4.93
2019-03-20T04:12:27.993Z,5.00
2019-03-20T04:14:57.204Z,5.47
2019-03-20T04:17:27.827Z,4.67
2019-03-20T04:19:56.965Z,4.33
2019-03-20T04:22:26.110Z,5.00
2019-03-20T04:24:55.344Z,5.10
2019-03-20T04:27:24.801Z,4.30
2019-03-20T04:29:54.029Z,5.03
2019-03-20T04:32:23.235Z,4.70
2019-03-20T04:34:52.460Z,4.33
2019-03-20T04:37:21.679Z,4.47
2019-03-20T04:39:50.859Z,5.97
2019-03-20T04:42:20.090Z,4.67
2019-03-20T04:44:49.225Z,4.60
2019-03-20T04:47:18.471Z,5.00
2019-03-20T04:49:47.666Z,4.63
2019-03-20T04:52:16.851Z,5.27
2019-03-20T04:54:46.033Z,5.23
2019-03-20T04:57:15.231Z,4.17
2019-03-20T04:59:44.350Z,4.70
2019-03-20T05:02:13.515Z,5.30
2019-03-20T05:04:42.662Z,4.47
2019-03-20T05:07:11.813Z,4.53
2019-03-20T05:09:40.950Z,4.50
2019-03-20T05:12:10.108Z,5.07
2019-03-20T05:14:39.315Z,5.95
2019-03-20T05:17:08.462Z,5.70
2019-03-20T05:19:37.716Z,4.43
2019-03-20T05:22:06.861Z,5.03
2019-03-20T05:24:36.060Z,4.60
2019-03-20T05:27:05.356Z,4.50
2019-03-20T05:29:34.517Z,4.70
2019-03-20T05:32:03.690Z,8.00
2019-03-20T05:34:32.932Z,5.20
2019-03-20T05:37:10.250Z,4.73
2019-03-20T05:39:33.073Z,4.40
2019-03-20T05:42:02.397Z,4.90
2019-03-20T05:44:31.556Z,5.93
2019-03-20T05:47:00.811Z,5.97
2019-03-20T05:49:30.036Z,5.00
2019-03-20T05:51:59.271Z,5.43
2019-03-20T05:54:28.393Z,4.93
2019-03-20T05:56:57.532Z,5.77
2019-03-20T05:59:26.848Z,5.90
2019-03-20T06:01:56.071Z,5.20
2019-03-20T06:04:25.360Z,6.20
2019-03-20T06:06:54.621Z,5.43
2019-03-20T06:09:23.873Z,6.00
2019-03-20T06:11:53.148Z,7.27
2019-03-20T06:14:22.397Z,5.87
2019-03-20T06:16:51.579Z,5.80
2019-03-20T06:19:20.858Z,5.33
2019-03-20T06:21:50.085Z,6.20
2019-03-20T06:24:19.218Z,5.60
2019-03-20T06:26:48.403Z,6.30
2019-03-20T06:29:19.997Z,5.37
2019-03-20T06:31:48.540Z,5.50
2019-03-20T06:34:17.684Z,5.50
2019-03-20T06:36:46.921Z,5.07
2019-03-20T06:39:16.177Z,5.70
2019-03-20T06:41:45.500Z,4.73
2019-03-20T06:44:14.760Z,6.23
2019-03-20T06:46:44.019Z,6.23
2019-03-20T06:49:13.218Z,5.60
2019-03-20T06:51:42.402Z,5.90
2019-03-20T06:54:11.530Z,5.60
2019-03-20T06:56:40.776Z,5.70
2019-03-20T06:59:48.512Z,5.43
2019-03-20T07:02:18.848Z,5.67
2019-03-20T07:05:06.069Z,7.63
2019-03-20T07:07:43.888Z,5.93
2019-03-20T07:10:40.442Z,6.57
2019-03-20T07:13:09.612Z,6.23
2019-03-20T07:15:38.778Z,8.80
2019-03-20T07:18:08.071Z,6.77
2019-03-20T07:20:37.205Z,6.03
2019-03-20T07:23:06.442Z,5.67
2019-03-20T07:25:36.999Z,6.00
2019-03-20T07:28:06.144Z,5.93
2019-03-20T07:30:35.324Z,5.87
2019-03-20T07:33:04.482Z,6.13
2019-03-20T07:35:33.648Z,6.73
2019-03-20T07:38:02.805Z,5.73
2019-03-20T07:40:32.071Z,6.07
2019-03-20T07:43:08.658Z,5.43
2019-03-20T07:45:35.036Z,6.23
2019-03-20T07:48:04.181Z,6.10
2019-03-20T07:50:33.369Z,5.67
2019-03-20T07:53:02.578Z,5.37
2019-03-20T07:55:31.772Z,6.40
2019-03-20T07:58:00.957Z,5.80
2019-03-20T08:00:30.123Z,5.70
2019-03-20T08:02:59.376Z,5.80
2019-03-20T08:05:29.647Z,7.30
2019-03-20T08:08:07.367Z,5.80
2019-03-20T08:10:30.184Z,5.33
2019-03-20T08:12:59.770Z,6.13
2019-03-20T08:15:28.956Z,5.70
2019-03-20T08:17:58.200Z,6.83
2019-03-20T08:20:27.494Z,6.30
2019-03-20T08:22:59.485Z,6.13
2019-03-20T08:25:28.637Z,5.87
2019-03-20T08:27:58.361Z,6.83
2019-03-20T08:30:27.572Z,5.40
2019-03-20T08:32:56.737Z,5.47
2019-03-20T08:35:25.941Z,5.80
2019-03-20T08:37:55.093Z,5.63
2019-03-20T08:40:24.349Z,5.60
2019-03-20T08:42:53.586Z,5.30
2019-03-20T08:45:22.783Z,6.00
2019-03-20T08:47:52.067Z,5.73
2019-03-20T08:50:21.321Z,5.90
2019-03-20T08:52:50.473Z,5.57
2019-03-20T08:55:19.875Z,4.30
2019-03-20T08:57:49.378Z,5.83
2019-03-20T09:00:19.111Z,4.87
2019-03-20T09:02:48.440Z,6.10
2019-03-20T09:05:17.892Z,5.33
2019-03-20T09:07:47.753Z,5.00
2019-03-20T09:10:18.753Z,4.70
2019-03-20T09:12:48.336Z,5.17
2019-03-20T09:15:19.029Z,5.37
2019-03-20T09:17:48.200Z,4.53
2019-03-20T09:20:17.449Z,5.33
2019-03-20T09:22:46.733Z,4.57
2019-03-20T09:25:16.866Z,4.87
2019-03-20T09:27:46.069Z,5.30
2019-03-20T09:30:20.704Z,4.93
2019-03-20T09:32:49.879Z,4.40
2019-03-20T09:35:19.272Z,4.43
2019-03-20T09:37:52.189Z,3.53
2019-03-20T09:40:19.765Z,4.13
2019-03-20T09:42:48.905Z,4.20
2019-03-20T09:45:18.174Z,3.40
2019-03-20T09:47:48.436Z,4.10
2019-03-20T09:50:18.125Z,4.57
2019-03-20T09:52:47.330Z,4.27
2019-03-20T09:55:16.658Z,3.90
2019-03-20T09:57:45.842Z,3.00
2019-03-20T10:00:17.656Z,2.20
2019-03-20T10:02:47.993Z,2.50
2019-03-20T10:05:17.265Z,1.77
2019-03-20T10:07:46.467Z,1.93
2019-03-20T10:10:21.165Z,1.20
2019-03-20T10:12:50.325Z,1.30
2019-03-20T10:15:19.720Z,1.57
2019-03-20T10:17:48.864Z,1.97
2019-03-20T10:20:19.088Z,1.73
2019-03-20T10:22:48.349Z,1.43
2019-03-20T10:25:17.824Z,1.93
2019-03-20T10:27:46.971Z,1.50
2019-03-20T10:30:21.703Z,1.77
2019-03-20T10:32:50.900Z,1.97
2019-03-20T10:35:20.227Z,1.50
2019-03-20T10:37:49.386Z,1.60
2019-03-20T10:40:19.990Z,1.47
2019-03-20T10:42:49.468Z,1.50
2019-03-20T10:45:22.115Z,1.87
2019-03-20T10:47:53.072Z,1.73
2019-03-20T10:50:22.301Z,2.17
2019-03-20T10:52:51.439Z,1.67
2019-03-20T10:55:20.763Z,1.80
2019-03-20T10:57:49.913Z,1.50
2019-03-20T11:00:20.131Z,1.70
2019-03-20T11:02:49.310Z,2.10
2019-03-20T11:05:18.775Z,2.63
2019-03-20T11:07:48.117Z,1.90
2019-03-20T11:10:21.916Z,2.00
2019-03-20T11:12:51.214Z,1.80
2019-03-20T11:15:20.391Z,1.57
2019-03-20T11:17:49.637Z,2.63
2019-03-20T11:20:18.936Z,1.67
2019-03-20T11:22:48.345Z,2.03
2019-03-20T11:25:18.520Z,2.37
2019-03-20T11:27:47.739Z,1.87
2019-03-20T11:30:21.492Z,2.03
2019-03-20T11:32:50.678Z,1.70
2019-03-20T11:35:19.812Z,2.17
2019-03-20T11:37:49.035Z,2.53
2019-03-20T11:40:20.775Z,2.60
2019-03-20T11:42:49.962Z,2.90
2019-03-20T11:45:19.134Z,1.67
2019-03-20T11:47:48.457Z,2.40
2019-03-20T11:50:20.435Z,1.97
2019-03-20T11:52:49.625Z,2.73
2019-03-20T11:55:18.873Z,2.10
2019-03-20T11:57:48.123Z,1.47
2019-03-20T12:00:18.100Z,1.63
2019-03-20T12:02:47.333Z,1.90
2019-03-20T12:05:16.471Z,1.87
2019-03-20T12:07:45.726Z,1.80
2019-03-20T12:10:18.756Z,1.83
2019-03-20T12:12:47.996Z,1.87
2019-03-20T12:15:17.236Z,1.73
2019-03-20T12:17:46.485Z,2.40
2019-03-20T12:20:18.661Z,1.60
2019-03-20T12:22:49.161Z,1.93
2019-03-20T12:25:23.012Z,2.00
2019-03-20T12:27:52.226Z,1.57
2019-03-20T12:30:23.270Z,1.90
2019-03-20T12:32:52.428Z,1.63
2019-03-20T12:35:21.811Z,2.27
2019-03-20T12:37:51.024Z,1.70
2019-03-20T12:40:22.215Z,1.70
2019-03-20T12:42:51.564Z,2.20
2019-03-20T12:45:23.483Z,1.90
2019-03-20T12:47:52.642Z,1.80
2019-03-20T12:50:21.775Z,1.57
2019-03-20T12:52:51.086Z,1.57
2019-03-20T12:55:20.359Z,2.10
2019-03-20T12:57:49.608Z,1.87
2019-03-20T13:00:20.316Z,2.00
2019-03-20T13:02:49.619Z,1.50
2019-03-20T13:05:19.169Z,2.07
2019-03-20T13:07:48.432Z,1.87
2019-03-20T13:10:18.849Z,2.20
2019-03-20T13:12:48.251Z,1.70
2019-03-20T13:15:23.212Z,2.37
2019-03-20T13:17:52.551Z,1.60
2019-03-20T13:20:21.980Z,1.30
2019-03-20T13:23:06.656Z,1.50
2019-03-20T13:25:35.818Z,1.40
2019-03-20T13:28:05.057Z,1.70
2019-03-20T13:30:40.443Z,1.90
2019-03-20T13:33:09.632Z,2.30
2019-03-20T13:35:38.808Z,1.43
2019-03-20T13:38:08.141Z,1.47
2019-03-20T13:40:37.281Z,2.10
2019-03-20T13:43:06.582Z,1.50
2019-03-20T13:45:35.857Z,1.60
2019-03-20T13:48:05.140Z,1.83
2019-03-20T13:50:34.323Z,1.97
2019-03-20T13:53:03.500Z,2.03
2019-03-20T13:55:32.740Z,1.70
2019-03-20T13:58:01.957Z,2.43
2019-03-20T14:00:31.165Z,1.33
2019-03-20T14:03:00.382Z,2.23
2019-03-20T14:05:29.588Z,1.53
2019-03-20T14:07:58.831Z,1.90
2019-03-20T14:10:28.290Z,1.60
2019-03-20T14:12:57.536Z,1.90
2019-03-20T14:15:26.693Z,1.90
2019-03-20T14:17:55.860Z,1.63
2019-03-20T14:20:25.210Z,1.97
2019-03-20T14:22:54.383Z,2.27
2019-03-20T14:25:23.849Z,2.23
2019-03-20T14:27:53.191Z,1.80
2019-03-20T14:30:24.384Z,1.73
2019-03-20T14:32:53.633Z,2.20
2019-03-20T14:35:22.929Z,1.40
2019-03-20T14:37:52.377Z,1.90
2019-03-20T14:40:23.851Z,1.53
2019-03-20T14:42:53.031Z,1.50
2019-03-20T14:45:22.317Z,1.53
2019-03-20T14:47:51.483Z,1.60
2019-03-20T14:50:22.480Z,1.47
2019-03-20T14:52:51.648Z,1.50
2019-03-20T14:55:20.936Z,1.33
2019-03-20T14:57:50.268Z,1.90
2019-03-20T15:00:21.247Z,1.67
2019-03-20T15:02:50.440Z,1.80
2019-03-20T15:05:19.807Z,2.23
2019-03-20T15:07:48.937Z,1.57
2019-03-20T15:10:19.381Z,1.90
2019-03-20T15:12:48.644Z,1.80
2019-03-20T15:15:30.318Z,1.90
2019-03-20T15:17:59.477Z,1.50
2019-03-20T15:20:28.669Z,1.37
2019-03-20T15:22:57.840Z,1.73
2019-03-20T15:25:27.126Z,1.47
2019-03-20T15:27:56.405Z,1.80
2019-03-20T15:30:27.051Z,1.63
2019-03-20T15:32:56.256Z,1.60
2019-03-20T15:35:25.453Z,1.70
2019-03-20T15:37:54.607Z,1.60
2019-03-20T15:40:23.805Z,1.70
2019-03-20T15:42:53.210Z,1.47
2019-03-20T15:45:22.381Z,1.60
2019-03-20T15:47:51.662Z,1.67
2019-03-20T15:50:21.089Z,1.97
2019-03-20T15:52:50.287Z,1.27
2019-03-20T15:55:24.163Z,1.50
2019-03-20T15:57:54.879Z,1.40
2019-03-20T16:00:24.133Z,1.37
2019-03-20T16:02:54.835Z,2.30
2019-03-20T16:05:24.073Z,1.10
2019-03-20T16:07:54.877Z,2.63
2019-03-20T16:10:24.120Z,1.50
2019-03-20T16:12:53.317Z,2.10
2019-03-20T16:15:22.521Z,1.60
2019-03-20T16:17:51.777Z,1.87
2019-03-20T16:20:21.017Z,2.20
2019-03-20T16:22:50.299Z,1.70
2019-03-20T16:25:19.560Z,2.43
2019-03-20T16:27:48.712Z,2.87
2019-03-20T16:30:19.525Z,3.13
2019-03-20T16:32:48.878Z,1.97
2019-03-20T16:35:18.228Z,2.00
2019-03-20T16:37:47.453Z,2.87
2019-03-20T16:40:18.392Z,1.57
2019-03-20T16:42:47.928Z,1.50
2019-03-20T16:45:19.449Z,1.50
2019-03-20T16:47:48.632Z,1.53
2019-03-20T16:50:18.040Z,1.83
2019-03-20T16:52:47.183Z,3.80
2019-03-20T16:55:16.416Z,2.30
2019-03-20T16:57:45.709Z,3.57
2019-03-20T17:00:20.194Z,1.50
2019-03-20T17:02:49.476Z,1.77
2019-03-20T17:05:18.825Z,1.53
2019-03-20T17:07:48.007Z,1.57
2019-03-20T17:10:19.991Z,1.60
2019-03-20T17:12:49.263Z,1.33
2019-03-20T17:15:20.592Z,1.80
2019-03-20T17:17:49.757Z,2.20
2019-03-20T17:20:19.126Z,1.30
2019-03-20T17:22:48.321Z,1.27
2019-03-20T17:25:17.487Z,1.60
2019-03-20T17:27:47.740Z,1.67
2019-03-20T17:30:19.348Z,1.50
2019-03-20T17:32:48.584Z,1.67
2019-03-20T17:35:17.824Z,1.93
2019-03-20T17:37:47.103Z,2.13
2019-03-20T17:40:17.240Z,1.80
2019-03-20T17:42:47.993Z,2.47
2019-03-20T17:45:19.214Z,2.10
2019-03-20T17:47:48.404Z,2.83
2019-03-20T17:50:19.998Z,2.30
2019-03-20T17:52:49.238Z,3.30
2019-03-20T17:55:18.468Z,2.70
2019-03-20T17:57:47.715Z,3.03
2019-03-20T18:00:24.560Z,2.63
2019-03-20T18:02:53.892Z,3.03
2019-03-20T18:05:23.186Z,3.00
2019-03-20T18:07:52.449Z,3.00
2019-03-20T18:10:23.135Z,2.50
2019-03-20T18:12:52.476Z,3.20
2019-03-20T18:15:21.718Z,2.20
2019-03-20T18:17:50.926Z,2.40
2019-03-20T18:20:20.297Z,2.53
2019-03-20T18:22:49.489Z,2.50
2019-03-20T18:25:18.717Z,3.60
2019-03-20T18:27:47.904Z,2.70
2019-03-20T18:30:19.280Z,2.87
2019-03-20T18:32:48.544Z,3.03
2019-03-20T18:35:17.969Z,2.70
2019-03-20T18:37:47.395Z,3.37
2019-03-20T18:40:17.513Z,3.20
2019-03-20T18:42:47.408Z,2.60
2019-03-20T18:45:18.011Z,3.03
2019-03-20T18:47:47.385Z,2.70
2019-03-20T18:50:18.572Z,3.30
2019-03-20T18:52:47.921Z,2.90
2019-03-20T18:55:17.130Z,3.20
2019-03-20T18:57:46.715Z,3.17
2019-03-20T19:00:20.927Z,3.40
2019-03-20T19:02:50.697Z,3.53
2019-03-20T19:05:23.030Z,3.67
2019-03-20T19:07:52.233Z,3.63
2019-03-20T19:10:21.468Z,4.30
2019-03-20T19:12:50.736Z,5.03
2019-03-20T19:15:19.957Z,4.57
2019-03-20T19:17:49.211Z,4.10
2019-03-20T19:20:19.962Z,3.90
2019-03-20T19:22:49.452Z,3.80
2019-03-20T19:25:18.799Z,3.67
2019-03-20T19:27:47.941Z,3.57
2019-03-20T19:30:18.949Z,3.43
2019-03-20T19:32:48.345Z,3.33
2019-03-20T19:35:17.577Z,3.43
2019-03-20T19:37:46.904Z,3.10
2019-03-20T19:40:16.419Z,3.40
2019-03-20T19:42:45.586Z,3.60
2019-03-20T19:45:14.804Z,3.40
2019-03-20T19:47:44.155Z,5.37
2019-03-20T19:50:14.111Z,5.40
2019-03-20T19:52:43.453Z,5.30
2019-03-20T19:55:13.071Z,4.10
2019-03-20T19:57:42.396Z,5.30
2019-03-20T20:00:15.515Z,5.77
2019-03-20T20:02:44.676Z,6.20
2019-03-20T20:05:15.883Z,4.53
2019-03-20T20:07:44.935Z,4.93
2019-03-20T20:10:14.724Z,5.57
2019-03-20T20:12:43.897Z,5.03
2019-03-20T20:15:15.533Z,4.60
2019-03-20T20:17:46.922Z,4.13
2019-03-20T20:20:17.124Z,4.23
2019-03-20T20:22:46.420Z,3.73
2019-03-20T20:25:15.722Z,4.20
2019-03-20T20:27:45.314Z,3.00
2019-03-20T20:30:16.021Z,4.10
2019-03-20T20:32:45.291Z,5.53
2019-03-20T20:35:14.624Z,4.97
2019-03-20T20:37:43.887Z,8.33
2019-03-20T20:40:14.660Z,7.20
2019-03-20T20:42:43.960Z,5.87
2019-03-20T20:45:13.604Z,7.00
2019-03-20T20:47:42.986Z,6.80
2019-03-20T20:50:12.548Z,6.40
2019-03-20T20:52:41.758Z,6.33
2019-03-20T20:55:12.047Z,5.90
2019-03-20T20:57:41.325Z,6.23
2019-03-20T21:00:13.947Z,6.70
2019-03-20T21:02:43.220Z,5.80
2019-03-20T21:05:12.585Z,5.37
2019-03-20T21:07:41.841Z,5.50
2019-03-20T21:10:13.442Z,5.53
2019-03-20T21:12:51.208Z,4.50
2019-03-20T21:15:57.093Z,4.93
2019-03-20T21:19:16.961Z,5.50
2019-03-20T21:22:24.442Z,5.40
2019-03-20T21:24:54.136Z,5.70
2019-03-20T21:28:01.828Z,5.23
2019-03-20T21:30:43.702Z,5.90
2019-03-20T21:33:43.011Z,5.93
2019-03-20T21:36:49.035Z,6.10
2019-03-20T21:39:18.732Z,4.63
2019-03-20T21:42:41.436Z,5.47
2019-03-20T21:45:50.173Z,4.83
2019-03-20T21:48:19.864Z,4.80
2019-03-20T21:51:17.945Z,5.50
2019-03-20T21:54:37.632Z,4.37
2019-03-20T21:57:51.829Z,4.87
2019-03-20T22:01:06.012Z,4.90
2019-03-20T22:03:37.328Z,4.77
2019-03-20T22:06:43.738Z,5.03
2019-03-20T22:09:47.396Z,4.73
2019-03-20T22:12:48.461Z,4.20
2019-03-20T22:15:27.133Z,4.90
2019-03-20T22:18:35.297Z,4.67
2019-03-20T22:21:37.189Z,4.77
2019-03-20T22:24:49.813Z,4.70
2019-03-20T22:27:57.305Z,4.07
2019-03-20T22:30:27.067Z,3.93
2019-03-20T22:33:32.131Z,3.70
2019-03-20T22:36:17.418Z,3.97
2019-03-20T22:40:01.600Z,4.10
2019-03-20T22:42:51.372Z,4.10
2019-03-20T22:45:56.680Z,4.70
2019-03-20T22:49:18.783Z,3.87
2019-03-20T22:52:50.264Z,4.23
2019-03-20T22:55:37.030Z,4.13
2019-03-20T22:58:31.330Z,4.50
2019-03-20T23:01:01.017Z,4.80
2019-03-20T23:03:38.343Z,4.70
2019-03-20T23:06:08.099Z,4.80
2019-03-20T23:08:39.623Z,4.80
2019-03-20T23:11:09.395Z,4.73
2019-03-20T23:13:41.729Z,4.27
2019-03-20T23:16:11.823Z,4.73
2019-03-20T23:18:41.591Z,5.13
2019-03-20T23:21:11.365Z,4.63
2019-03-20T23:23:41.858Z,3.93
2019-03-20T23:26:11.619Z,4.20
2019-03-20T23:28:41.706Z,4.40
2019-03-20T23:31:11.503Z,4.53
2019-03-20T23:33:41.174Z,4.20
2019-03-20T23:36:10.859Z,4.10
2019-03-20T23:38:40.669Z,4.20
2019-03-20T23:41:10.416Z,3.83
2019-03-20T23:43:40.260Z,4.10
2019-03-20T23:46:09.973Z,4.70
2019-03-20T23:48:47.001Z,4.43
2019-03-20T23:51:18.326Z,4.43
2019-03-20T23:53:50.904Z,4.97
2019-03-20T23:56:20.641Z,4.00
2019-03-20T23:58:50.420Z,6.33
